createdAt,value
2022-08-05T00:02:51.707Z,0.52
2022-08-05T00:06:36.079Z,0.70
2022-08-05T00:10:18.316Z,0.77
2022-08-05T00:14:00.235Z,0.45
2022-08-05T00:17:44.009Z,0.60
2022-08-05T00:21:30.495Z,0.70
2022-08-05T00:25:12.910Z,0.88
2022-08-05T00:28:54.784Z,0.52
2022-08-05T00:32:36.666Z,0.68
2022-08-05T00:37:12.338Z,0.90
2022-08-05T00:40:28.386Z,0.73
2022-08-05T00:44:10.835Z,0.68
2022-08-05T00:47:57.795Z,0.77
2022-08-05T00:51:51.051Z,0.60
2022-08-05T00:55:43.651Z,0.60
2022-08-05T00:59:25.900Z,0.73
2022-08-05T01:03:22.832Z,0.60
2022-08-05T01:07:07.088Z,0.52
2022-08-05T01:11:01.013Z,0.80
2022-08-05T01:14:59.496Z,0.60
2022-08-05T01:18:53.742Z,0.47
2022-08-05T01:23:25.847Z,0.60
2022-08-05T01:27:54.977Z,0.70
2022-08-05T01:31:51.247Z,1.13
2022-08-05T01:35:51.657Z,0.70
2022-08-05T01:39:46.454Z,0.60
2022-08-05T01:43:30.668Z,0.70
2022-08-05T01:47:16.200Z,0.73
2022-08-05T01:51:00.166Z,0.55
2022-08-05T01:55:02.526Z,0.50
2022-08-05T01:58:52.544Z,0.52
2022-08-05T02:02:38.028Z,0.63
2022-08-05T02:06:37.508Z,0.57
2022-08-05T02:10:23.647Z,1.02
2022-08-05T02:14:20.952Z,0.77
2022-08-05T02:18:32.645Z,0.80
2022-08-05T02:22:26.120Z,0.70
2022-08-05T02:26:13.148Z,0.65
2022-08-05T02:29:58.082Z,0.80
2022-08-05T02:33:50.044Z,0.73
2022-08-05T02:37:41.571Z,0.60
2022-08-05T02:41:28.319Z,1.00
2022-08-05T02:45:19.410Z,0.57
2022-08-05T02:49:07.686Z,0.77
2022-08-05T02:52:57.552Z,0.60
2022-08-05T02:56:41.213Z,1.00
2022-08-05T03:00:29.047Z,0.88
2022-08-05T03:04:15.732Z,0.85
2022-08-05T03:08:06.795Z,0.70
2022-08-05T03:11:56.042Z,0.65
2022-08-05T03:15:46.081Z,0.60
2022-08-05T03:19:34.082Z,0.80
2022-08-05T03:23:18.019Z,0.70
2022-08-05T03:27:00.525Z,0.93
2022-08-05T03:30:43.363Z,0.80
2022-08-05T03:34:27.468Z,0.70
2022-08-05T03:38:14.776Z,1.08
2022-08-05T03:41:57.181Z,0.80
2022-08-05T03:45:55.172Z,0.90
2022-08-05T03:49:51.644Z,0.90
2022-08-05T03:55:52.021Z,0.70
2022-08-05T03:58:10.169Z,0.70
2022-08-05T04:01:53.533Z,0.90
2022-08-05T04:05:42.513Z,0.98
2022-08-05T04:09:26.375Z,0.70
2022-08-05T04:13:08.549Z,0.70
2022-08-05T04:16:50.825Z,0.70
2022-08-05T04:20:35.006Z,0.70
2022-08-05T04:24:19.601Z,0.75
2022-08-05T04:32:02.119Z,1.00
2022-08-05T04:36:16.739Z,0.70
2022-08-05T04:39:52.768Z,1.23
2022-08-05T04:43:37.106Z,0.85
2022-08-05T04:47:20.221Z,0.70
2022-08-05T04:51:11.187Z,1.10
2022-08-05T04:54:53.581Z,0.82
2022-08-05T04:58:41.292Z,1.52
2022-08-05T05:02:41.245Z,0.98
2022-08-05T05:06:39.594Z,0.88
2022-08-05T05:10:29.561Z,0.80
2022-08-05T05:14:16.019Z,1.10
2022-08-05T05:17:59.554Z,1.25
2022-08-05T05:21:41.488Z,1.50
2022-08-05T05:25:32.833Z,1.55
2022-08-05T05:29:22.708Z,1.23
2022-08-05T05:33:17.118Z,1.05
2022-08-05T05:37:01.804Z,0.80
2022-08-05T05:40:51.217Z,0.95
2022-08-05T05:44:37.511Z,0.80
2022-08-05T05:48:27.398Z,0.75
2022-08-05T05:52:20.206Z,0.90
2022-08-05T05:56:10.612Z,1.10
2022-08-05T05:59:53.004Z,0.75
2022-08-05T06:03:53.742Z,0.90
2022-08-05T06:07:42.474Z,0.80
2022-08-05T06:11:41.528Z,1.27
2022-08-05T06:16:29.280Z,0.93
2022-08-05T06:19:57.015Z,0.75
2022-08-05T06:23:44.083Z,1.05
2022-08-05T06:28:11.033Z,1.17
2022-08-05T06:31:30.495Z,1.10
2022-08-05T06:35:15.453Z,0.88
2022-08-05T06:39:15.992Z,1.20
2022-08-05T06:42:57.967Z,1.23
2022-08-05T06:46:39.853Z,0.95
2022-08-05T06:50:29.254Z,1.40
2022-08-05T06:54:18.985Z,1.40
2022-08-05T06:58:11.744Z,1.05
2022-08-05T07:02:03.020Z,0.90
2022-08-05T07:05:46.210Z,1.33
2022-08-05T07:09:32.198Z,0.75
2022-08-05T07:13:57.114Z,2.20
2022-08-05T07:18:02.050Z,0.82
2022-08-05T07:21:59.837Z,0.90
2022-08-05T07:25:56.067Z,0.82
2022-08-05T07:30:24.409Z,0.80
2022-08-05T07:33:41.110Z,0.88
2022-08-05T07:37:23.536Z,0.93
2022-08-05T07:42:07.671Z,0.90
2022-08-05T07:45:19.169Z,1.00
2022-08-05T07:49:21.022Z,0.80
2022-08-05T07:53:02.966Z,1.20
2022-08-05T07:57:13.575Z,1.08
2022-08-05T08:00:48.422Z,0.98
2022-08-05T08:04:37.905Z,1.30
2022-08-05T08:08:20.211Z,0.90
2022-08-05T08:12:11.009Z,1.20
2022-08-05T08:16:34.874Z,1.00
2022-08-05T08:20:44.494Z,0.90
2022-08-05T08:24:05.678Z,1.05
2022-08-05T08:27:51.234Z,1.27
2022-08-05T08:31:33.329Z,1.00
2022-08-05T08:35:15.662Z,0.75
2022-08-05T08:38:58.387Z,0.95
2022-08-05T08:42:46.828Z,0.73
2022-08-05T08:46:33.224Z,0.70
2022-08-05T08:50:31.171Z,0.70
2022-08-05T08:54:19.009Z,0.70
2022-08-05T08:58:03.156Z,7.75
2022-08-05T09:01:46.132Z,7.20
2022-08-05T09:06:08.053Z,2.75
2022-08-05T09:09:42.830Z,0.85
2022-08-05T09:13:31.814Z,0.93
2022-08-05T09:17:40.747Z,0.70
2022-08-05T09:22:18.340Z,0.75
2022-08-05T09:26:01.420Z,0.40
2022-08-05T09:30:01.188Z,0.85
2022-08-05T09:33:52.526Z,1.05
2022-08-05T09:38:17.720Z,0.60
2022-08-05T09:42:03.776Z,0.70
2022-08-05T09:46:07.766Z,0.50
2022-08-05T09:50:02.063Z,0.60
2022-08-05T09:53:53.669Z,1.00
2022-08-05T09:57:40.081Z,0.65
2022-08-05T10:01:32.515Z,0.60
2022-08-05T10:05:18.108Z,0.52
2022-08-05T10:09:27.650Z,0.43
2022-08-05T10:13:10.661Z,0.88
2022-08-05T10:16:56.238Z,0.30
2022-08-05T10:24:28.610Z,0.77
2022-08-05T10:28:17.291Z,0.40
2022-08-05T10:33:02.200Z,0.22
2022-08-05T10:36:05.275Z,0.50
2022-08-05T10:40:03.084Z,0.40
2022-08-05T10:43:52.247Z,0.50
2022-08-05T10:47:47.143Z,0.68
2022-08-05T10:51:57.268Z,0.40
2022-08-05T10:56:14.649Z,0.52
2022-08-05T11:00:20.169Z,0.50
2022-08-05T11:04:23.464Z,0.70
2022-08-05T11:08:33.872Z,0.30
2022-08-05T11:16:47.409Z,0.40
2022-08-05T11:20:41.776Z,0.50
2022-08-05T11:24:30.688Z,0.50
2022-08-05T11:28:17.122Z,0.50
2022-08-05T11:32:29.234Z,0.63
2022-08-05T11:36:13.040Z,0.73
2022-08-05T11:40:00.688Z,0.90
2022-08-05T11:44:07.184Z,0.68
2022-08-05T11:47:50.513Z,0.30
2022-08-05T11:51:44.150Z,0.47
2022-08-05T11:55:36.447Z,0.32
2022-08-05T11:59:27.632Z,0.70
2022-08-05T12:03:29.499Z,0.70
2022-08-05T12:07:18.713Z,0.82
2022-08-05T12:11:28.329Z,0.40
2022-08-05T12:15:35.843Z,0.50
2022-08-05T12:20:25.539Z,0.47
2022-08-05T12:23:24.826Z,0.40
2022-08-05T12:31:07.482Z,0.47
2022-08-05T12:34:49.394Z,0.47
2022-08-05T12:38:31.646Z,0.40
2022-08-05T12:42:19.631Z,0.55
2022-08-05T12:46:01.579Z,0.55
2022-08-05T12:50:02.944Z,0.73
2022-08-05T12:53:55.731Z,0.50
2022-08-05T12:58:38.228Z,0.40
2022-08-05T13:02:04.164Z,0.50
2022-08-05T13:05:46.357Z,0.20
2022-08-05T13:09:33.185Z,0.43
2022-08-05T13:14:06.171Z,0.50
2022-08-05T13:17:31.966Z,0.55
2022-08-05T13:21:23.499Z,0.40
2022-08-05T13:25:19.124Z,0.45
2022-08-05T13:29:05.167Z,0.40
2022-08-05T13:32:50.611Z,0.32
2022-08-05T13:36:34.044Z,0.50
2022-08-05T13:40:36.828Z,0.40
2022-08-05T13:44:18.492Z,0.20
2022-08-05T13:48:09.486Z,0.32
2022-08-05T13:52:18.220Z,0.50
2022-08-05T13:56:02.185Z,0.30
2022-08-05T13:59:57.466Z,0.30
2022-08-05T14:03:41.994Z,0.52
2022-08-05T14:08:00.645Z,0.43
2022-08-05T14:11:31.355Z,0.30
2022-08-05T14:16:04.342Z,0.63
2022-08-05T14:19:15.310Z,0.35
2022-08-05T14:23:00.423Z,0.40
2022-08-05T14:30:46.387Z,0.25
2022-08-05T14:34:28.480Z,0.30
2022-08-05T14:38:31.612Z,0.40
2022-08-05T14:42:19.371Z,0.57
2022-08-05T14:46:03.630Z,0.50
2022-08-05T14:49:59.450Z,0.40
2022-08-05T14:53:44.184Z,0.45
2022-08-05T14:57:34.050Z,0.65
2022-08-05T15:01:48.281Z,0.52
2022-08-05T15:06:12.705Z,0.43
2022-08-05T15:09:51.890Z,0.50
2022-08-05T15:13:45.777Z,0.60
2022-08-05T15:17:45.634Z,0.88
2022-08-05T15:21:28.607Z,0.40
2022-08-05T15:25:13.945Z,0.55
2022-08-05T15:28:56.060Z,0.43
2022-08-05T15:32:38.417Z,0.63
2022-08-05T15:36:24.168Z,0.50
2022-08-05T15:41:03.538Z,0.60
2022-08-05T15:44:09.296Z,0.55
2022-08-05T15:47:54.379Z,0.50
2022-08-05T15:52:10.363Z,0.40
2022-08-05T15:56:04.055Z,0.40
2022-08-05T15:59:44.024Z,0.60
2022-08-05T16:03:27.310Z,0.40
2022-08-05T16:07:10.963Z,0.60
2022-08-05T16:10:52.847Z,0.50
2022-08-05T16:14:34.730Z,0.50
2022-08-05T16:18:16.532Z,0.30
2022-08-05T16:22:02.539Z,1.00
2022-08-05T16:25:45.144Z,0.50
2022-08-05T16:29:31.208Z,0.47
2022-08-05T16:33:19.545Z,0.75
2022-08-05T16:37:01.364Z,0.60
2022-08-05T16:42:12.406Z,0.70
2022-08-05T16:46:04.753Z,0.82
2022-08-05T16:49:09.118Z,0.90
2022-08-05T16:52:51.864Z,0.60
2022-08-05T16:56:36.219Z,0.60
2022-08-05T17:00:26.059Z,0.47
2022-08-05T17:04:16.675Z,0.60
2022-08-05T17:08:00.696Z,0.60
2022-08-05T17:11:48.419Z,0.40
2022-08-05T17:15:48.771Z,0.52
2022-08-05T17:19:33.011Z,0.43
2022-08-05T17:24:03.155Z,0.73
2022-08-05T17:27:17.753Z,0.50
2022-08-05T17:31:00.394Z,0.47
2022-08-05T17:34:50.598Z,0.55
2022-08-05T17:38:34.961Z,0.60
2022-08-05T17:42:22.014Z,0.30
2022-08-05T17:46:06.543Z,0.30
2022-08-05T17:50:04.264Z,0.50
2022-08-05T17:53:54.650Z,0.50
2022-08-05T17:57:40.020Z,0.40
2022-08-05T18:01:30.488Z,0.55
2022-08-05T18:05:35.352Z,0.50
2022-08-05T18:09:17.874Z,0.60
2022-08-05T18:12:59.700Z,0.57
2022-08-05T18:16:51.367Z,0.57
2022-08-05T18:20:34.216Z,0.30
2022-08-05T18:24:16.115Z,0.50
2022-08-05T18:27:57.941Z,0.45
2022-08-05T18:31:43.134Z,0.40
2022-08-05T18:35:28.301Z,0.40
2022-08-05T18:40:29.711Z,0.50
2022-08-05T18:43:31.697Z,0.30
2022-08-05T18:47:19.958Z,0.40
2022-08-05T18:52:04.237Z,0.45
2022-08-05T18:55:25.314Z,0.30
2022-08-05T18:59:42.967Z,0.28
2022-08-05T19:03:09.609Z,0.57
2022-08-05T19:06:54.643Z,0.47
2022-08-05T19:10:37.530Z,0.50
2022-08-05T19:14:52.155Z,0.60
2022-08-05T19:18:22.818Z,0.55
2022-08-05T19:22:05.350Z,0.40
2022-08-05T19:25:47.245Z,0.47
2022-08-05T19:29:36.202Z,0.68
2022-08-05T19:33:35.578Z,0.43
2022-08-05T19:37:18.507Z,0.45
2022-08-05T19:41:08.987Z,0.40
2022-08-05T19:44:52.945Z,0.30
2022-08-05T19:48:38.427Z,0.73
2022-08-05T19:52:40.588Z,0.30
2022-08-05T19:56:32.388Z,0.57
2022-08-05T20:00:16.610Z,0.60
2022-08-05T20:04:03.115Z,0.47
2022-08-05T20:07:48.237Z,0.50
2022-08-05T20:11:31.160Z,1.03
2022-08-05T20:15:48.272Z,0.68
2022-08-05T20:19:23.052Z,0.80
2022-08-05T20:23:04.914Z,0.68
2022-08-05T20:26:46.740Z,0.93
2022-08-05T20:30:30.317Z,0.68
2022-08-05T20:34:12.512Z,1.15
2022-08-05T20:38:05.725Z,0.60
2022-08-05T20:41:48.807Z,0.98
2022-08-05T20:45:55.813Z,0.82
2022-08-05T20:49:39.466Z,0.63
2022-08-05T20:53:36.792Z,0.73
2022-08-05T20:57:42.050Z,0.68
2022-08-05T21:01:21.314Z,0.70
2022-08-05T21:05:19.465Z,0.77
2022-08-05T21:09:07.941Z,0.75
2022-08-05T21:12:57.686Z,1.00
2022-08-05T21:16:50.206Z,0.95
2022-08-05T21:20:33.018Z,0.60
2022-08-05T21:24:15.904Z,0.70
2022-08-05T21:27:58.557Z,0.85
2022-08-05T21:31:41.650Z,0.60
2022-08-05T21:35:29.967Z,0.70
2022-08-05T21:39:27.103Z,1.00
2022-08-05T21:43:23.854Z,1.50
2022-08-05T21:47:06.296Z,1.20
2022-08-05T21:50:59.481Z,0.80
2022-08-05T21:54:41.470Z,0.73
2022-08-05T21:58:31.873Z,0.55
2022-08-05T22:02:14.161Z,0.55
2022-08-05T22:05:55.980Z,0.50
2022-08-05T22:09:45.437Z,0.55
2022-08-05T22:14:19.826Z,0.90
2022-08-05T22:17:30.024Z,0.80
2022-08-05T22:21:19.354Z,0.50
2022-08-05T22:25:27.535Z,0.70
2022-08-05T22:29:26.300Z,0.60
2022-08-05T22:33:15.155Z,0.82
2022-08-05T22:37:00.365Z,1.00
2022-08-05T22:40:42.300Z,0.90
2022-08-05T22:44:32.041Z,0.77
2022-08-05T22:48:13.884Z,0.88
2022-08-05T22:52:06.991Z,0.70
2022-08-05T22:55:57.075Z,0.50
2022-08-05T23:03:58.000Z,0.90
2022-08-05T23:07:30.401Z,0.70
2022-08-05T23:11:12.753Z,1.17
2022-08-05T23:14:54.991Z,0.75
2022-08-05T23:18:38.571Z,1.13
2022-08-05T23:22:27.140Z,0.73
2022-08-05T23:26:09.601Z,0.90
2022-08-05T23:29:51.460Z,0.95
2022-08-05T23:34:04.982Z,1.00
2022-08-05T23:37:36.689Z,1.65
2022-08-05T23:41:19.256Z,1.00
2022-08-05T23:45:01.068Z,1.33
2022-08-05T23:48:42.888Z,0.80
2022-08-05T23:52:35.925Z,0.80
2022-08-05T23:56:23.676Z,1.10
